PWSweather.com
Personal Weather Stations
Station Observations
KVAGLENALL
West Henrico, Glen Allen, VA 23060-6503

West HenricoGlen Allen, VA 23060-6503

Lat: 37.6554, Lon: -77.5693

Elevation: 273

Station Type: Davis Vantage Pro II

Latest ConditionsUpdated 9:45:15 AM EDT Sunday, Jun 25, 2017
Currently Today's Max Today's Min Today's Average
Temperature 78.3°F25.7°C 78.3°F25.7°C 66.6°F19.2°C 70.7°F21.5°C
Dew Point 63.8°F17.7°C 66.8°F19.3°C 63.3°F17.4°C 65.3°F18.5°C
Winds 0.1 mph NE0.2 kmh NE 1.0 mph SSW1.6 kmh SSW - 0.2 mph 0.3 kmh
Wind Gusts 2.1 mph3.4 kmh 3.1 mph5.0 kmh - -
Humidity 61% 90% 61% 83%
Pressure 30.03 in1016.9 mb 30.03 in1016.9 mb 29.95 in1014.2 mb -
Hour Temp Dew Point Humidity Winds Wind Gusts Pressure Precip Precip Rate Daily Precip Total
09:45 AM 78.3°F25.7°C 63.8°F17.7°C 61% 0.1 mph NE0.2 kmh NE 2.1 mph3.4 kmh 30.03 in1016.9 mb 0.00 in0.0 mm 0.00 in0.0 mm 0.00 in0.0 mm
09:30 AM 76.8°F24.9°C 64.6°F18.1°C 66% 1.0 mph NNE1.6 kmh NNE 3.1 mph5.0 kmh 30.02 in1016.6 mb 0.00 in0.0 mm 0.00 in0.0 mm 0.00 in0.0 mm
09:15 AM 76.5°F24.7°C 65.6°F18.7°C 69% 0.1 mph NNW0.2 kmh NNW 2.1 mph3.4 kmh 30.02 in1016.6 mb 0.00 in0.0 mm 0.00 in0.0 mm 0.00 in0.0 mm
09:00 AM 76.2°F24.6°C 64.4°F18.0°C 67% 0.1 mph NNW0.2 kmh NNW 0.1 mph0.2 kmh 30.03 in1016.9 mb 0.00 in0.0 mm 0.00 in0.0 mm 0.00 in0.0 mm
08:45 AM 75.7°F24.3°C 64.8°F18.2°C 69% 1.0 mph NNE1.6 kmh NNE 2.1 mph3.4 kmh 30.02 in1016.6 mb 0.00 in0.0 mm 0.00 in0.0 mm 0.00 in0.0 mm
08:30 AM 74.1°F23.4°C 65.3°F18.5°C 74% 0.1 mph NNE0.2 kmh NNE 1.1 mph1.8 kmh 30.01 in1016.3 mb 0.00 in0.0 mm 0.00 in0.0 mm 0.00 in0.0 mm
08:15 AM 73.0°F22.8°C 64.6°F18.1°C 75% 0.1 mph NE0.2 kmh NE 3.1 mph5.0 kmh 30.01 in1016.3 mb 0.00 in0.0 mm 0.00 in0.0 mm 0.00 in0.0 mm
08:00 AM 71.4°F21.9°C 65.2°F18.4°C 81% 0.1 mph ENE0.2 kmh ENE 0.1 mph0.2 kmh 30.01 in1016.3 mb 0.00 in0.0 mm 0.00 in0.0 mm 0.00 in0.0 mm
07:45 AM 70.9°F21.6°C 65.8°F18.8°C 84% 0.1 mph ENE0.2 kmh ENE 0.1 mph0.2 kmh 30.00 in1015.9 mb 0.00 in0.0 mm 0.00 in0.0 mm 0.00 in0.0 mm
07:30 AM 70.4°F21.3°C 65.6°F18.7°C 85% 0.1 mph ENE0.2 kmh ENE 0.1 mph0.2 kmh 30.00 in1015.9 mb 0.00 in0.0 mm 0.00 in0.0 mm 0.00 in0.0 mm
07:15 AM 69.2°F20.7°C 65.2°F18.4°C 87% 0.1 mph E0.2 kmh E 3.1 mph5.0 kmh 30.00 in1015.9 mb 0.00 in0.0 mm 0.00 in0.0 mm 0.00 in0.0 mm
07:00 AM 67.8°F19.9°C 64.5°F18.1°C 89% 0.1 mph E0.2 kmh E 0.1 mph0.2 kmh 30.00 in1015.9 mb 0.00 in0.0 mm 0.00 in0.0 mm 0.00 in0.0 mm
06:45 AM 67.0°F19.4°C 64.0°F17.8°C 90% 0.1 mph E0.2 kmh E 0.1 mph0.2 kmh 30.00 in1015.9 mb 0.00 in0.0 mm 0.00 in0.0 mm 0.00 in0.0 mm
06:30 AM 66.6°F19.2°C 63.3°F17.4°C 89% 0.1 mph NNW0.2 kmh NNW 0.1 mph0.2 kmh 29.99 in1015.6 mb 0.00 in0.0 mm 0.00 in0.0 mm 0.00 in0.0 mm
06:15 AM 66.6°F19.2°C 63.3°F17.4°C 89% 0.1 mph NNW0.2 kmh NNW 0.1 mph0.2 kmh 29.99 in1015.6 mb 0.00 in0.0 mm 0.00 in0.0 mm 0.00 in0.0 mm
06:00 AM 67.0°F19.4°C 63.7°F17.6°C 89% 0.1 mph NNW0.2 kmh NNW 1.1 mph1.8 kmh 29.98 in1015.2 mb 0.00 in0.0 mm 0.00 in0.0 mm 0.00 in0.0 mm
05:45 AM 67.2°F19.6°C 63.9°F17.7°C 89% 0.1 mph NNW0.2 kmh NNW 0.1 mph0.2 kmh 29.98 in1015.2 mb 0.00 in0.0 mm 0.00 in0.0 mm 0.00 in0.0 mm
05:30 AM 67.5°F19.7°C 64.2°F17.9°C 89% 0.1 mph SSW0.2 kmh SSW 0.1 mph0.2 kmh 29.98 in1015.2 mb 0.00 in0.0 mm 0.00 in0.0 mm 0.00 in0.0 mm
05:15 AM 68.0°F20.0°C 64.7°F18.2°C 89% 0.1 mph SSW0.2 kmh SSW 0.1 mph0.2 kmh 29.97 in1014.9 mb 0.00 in0.0 mm 0.00 in0.0 mm 0.00 in0.0 mm
05:00 AM 68.2°F20.1°C 64.6°F18.1°C 88% 0.1 mph SSW0.2 kmh SSW 0.1 mph0.2 kmh 29.97 in1014.9 mb 0.00 in0.0 mm 0.00 in0.0 mm 0.00 in0.0 mm
04:45 AM 68.7°F20.4°C 65.1°F18.4°C 88% 0.1 mph SSW0.2 kmh SSW 0.1 mph0.2 kmh 29.96 in1014.6 mb 0.00 in0.0 mm 0.00 in0.0 mm 0.00 in0.0 mm
04:30 AM 69.2°F20.7°C 65.5°F18.6°C 88% 0.1 mph SSW0.2 kmh SSW 0.1 mph0.2 kmh 29.96 in1014.6 mb 0.00 in0.0 mm 0.00 in0.0 mm 0.00 in0.0 mm
04:15 AM 69.7°F20.9°C 66.3°F19.1°C 89% 0.1 mph SSW0.2 kmh SSW 1.1 mph1.8 kmh 29.96 in1014.6 mb 0.00 in0.0 mm 0.00 in0.0 mm 0.00 in0.0 mm
04:00 AM 70.0°F21.1°C 66.6°F19.2°C 89% 0.1 mph SSW0.2 kmh SSW 0.1 mph0.2 kmh 29.96 in1014.6 mb 0.00 in0.0 mm 0.00 in0.0 mm 0.00 in0.0 mm
03:45 AM 70.1°F21.2°C 66.7°F19.3°C 89% 0.1 mph SSW0.2 kmh SSW 0.1 mph0.2 kmh 29.96 in1014.6 mb 0.00 in0.0 mm 0.00 in0.0 mm 0.00 in0.0 mm
03:30 AM 70.3°F21.3°C 66.5°F19.2°C 88% 0.1 mph SSW0.2 kmh SSW 0.1 mph0.2 kmh 29.96 in1014.6 mb 0.00 in0.0 mm 0.00 in0.0 mm 0.00 in0.0 mm
03:15 AM 70.6°F21.4°C 66.8°F19.3°C 88% 0.1 mph SSW0.2 kmh SSW 0.1 mph0.2 kmh 29.96 in1014.6 mb 0.00 in0.0 mm 0.00 in0.0 mm 0.00 in0.0 mm
03:00 AM 70.7°F21.5°C 66.6°F19.2°C 87% 0.1 mph SSW0.2 kmh SSW 0.1 mph0.2 kmh 29.96 in1014.6 mb 0.00 in0.0 mm 0.00 in0.0 mm 0.00 in0.0 mm
02:45 AM 70.5°F21.4°C 66.4°F19.1°C 87% 1.0 mph SSW1.6 kmh SSW 2.1 mph3.4 kmh 29.95 in1014.2 mb 0.00 in0.0 mm 0.00 in0.0 mm 0.00 in0.0 mm
02:30 AM 70.4°F21.3°C 66.0°F18.9°C 86% 0.1 mph SSW0.2 kmh SSW 0.1 mph0.2 kmh 29.95 in1014.2 mb 0.00 in0.0 mm 0.00 in0.0 mm 0.00 in0.0 mm
02:15 AM 70.6°F21.4°C 66.2°F19.0°C 86% 0.1 mph SSW0.2 kmh SSW 0.1 mph0.2 kmh 29.95 in1014.2 mb 0.00 in0.0 mm 0.00 in0.0 mm 0.00 in0.0 mm
02:00 AM 70.7°F21.5°C 65.6°F18.7°C 84% 0.1 mph SSW0.2 kmh SSW 0.1 mph0.2 kmh 29.96 in1014.6 mb 0.00 in0.0 mm 0.00 in0.0 mm 0.00 in0.0 mm
01:45 AM 70.8°F21.6°C 65.7°F18.7°C 84% 0.1 mph SSW0.2 kmh SSW 0.1 mph0.2 kmh 29.96 in1014.6 mb 0.00 in0.0 mm 0.00 in0.0 mm 0.00 in0.0 mm
01:30 AM 71.0°F21.7°C 65.9°F18.8°C 84% 0.1 mph SSW0.2 kmh SSW 1.1 mph1.8 kmh 29.96 in1014.6 mb 0.00 in0.0 mm 0.00 in0.0 mm 0.00 in0.0 mm
01:15 AM 71.2°F21.8°C 66.1°F18.9°C 84% 0.1 mph SSW0.2 kmh SSW 0.1 mph0.2 kmh 29.96 in1014.6 mb 0.00 in0.0 mm 0.00 in0.0 mm 0.00 in0.0 mm
01:00 AM 71.3°F21.8°C 65.8°F18.8°C 83% 0.1 mph SSW0.2 kmh SSW 0.1 mph0.2 kmh 29.96 in1014.6 mb 0.00 in0.0 mm 0.00 in0.0 mm 0.00 in0.0 mm
12:45 AM 70.8°F21.6°C 65.3°F18.5°C 83% 0.1 mph E0.2 kmh E 1.1 mph1.8 kmh 29.95 in1014.2 mb 0.00 in0.0 mm 0.00 in0.0 mm 0.00 in0.0 mm
12:30 AM 71.1°F21.7°C 65.6°F18.7°C 83% 0.1 mph E0.2 kmh E 0.1 mph0.2 kmh 29.96 in1014.6 mb 0.00 in0.0 mm 0.00 in0.0 mm 0.00 in0.0 mm
12:15 AM 71.3°F21.8°C 65.5°F18.6°C 82% 0.1 mph E0.2 kmh E 0.1 mph0.2 kmh 29.95 in1014.2 mb 0.00 in0.0 mm 0.00 in0.0 mm 0.00 in0.0 mm
12:00 AM 71.7°F22.1°C 65.5°F18.6°C 81% 0.1 mph E0.2 kmh E 0.1 mph0.2 kmh 29.95 in1014.2 mb 0.00 in0.0 mm 0.00 in0.0 mm 0.00 in0.0 mm